Time;durP1;ratioP1;P1;durP2;ratioP2;P2;SDS_P1;SDS_P2;PMS_P1;PMS_P2;Temp;Humidity;BMP_temperature;BMP_pressure;BME280_temperature;BME280_humidity;BME280_pressure;Samples;Min_cycle;Max_cycle;Signal;HPM_P1;HPM_P2
2023/01/14 00:01:01;;;;;;;16.08;5.20;;;;;;;-1.56;77.44;100105.41;4900975;29;20044;-44
2023/01/14 00:03:28;;;;;;;9.63;4.50;;;;;;;-1.58;77.50;100099.44;4911474;29;20422;-43
2023/01/14 00:06:00;;;;;;;14.93;5.10;;;;;;;-1.39;77.17;100155.94;4907120;29;20050;-46
2023/01/14 00:08:28;;;;;;;12.48;5.40;;;;;;;-1.41;77.58;100144.84;4912783;29;20076;-45
2023/01/14 00:10:54;;;;;;;15.48;5.63;;;;;;;-1.41;77.56;100149.06;4910643;29;20507;-44
2023/01/14 00:13:20;;;;;;;11.15;4.68;;;;;;;-1.44;77.37;100142.22;4911830;29;20050;-44
2023/01/14 00:15:51;;;;;;;15.65;5.85;;;;;;;-1.43;77.53;100140.56;4902703;29;20095;-44
2023/01/14 00:18:17;;;;;;;11.57;4.18;;;;;;;-1.27;77.24;100152.78;4912651;29;20514;-44
2023/01/14 00:20:43;;;;;;;11.48;5.20;;;;;;;-1.27;77.29;100150.25;4913867;29;20189;-44
2023/01/14 00:23:09;;;;;;;16.58;5.40;;;;;;;-1.29;77.07;100149.34;4912656;29;20044;-44
2023/01/14 00:25:35;;;;;;;13.38;5.40;;;;;;;-1.34;77.11;100145.84;4912133;29;20690;-44
2023/01/14 00:28:01;;;;;;;10.27;4.85;;;;;;;-1.34;77.50;100150.94;4913578;29;20044;-43
2023/01/14 00:30:27;;;;;;;16.30;4.55;;;;;;;-1.36;77.41;100137.31;4913624;29;20459;-43
2023/01/14 00:32:53;;;;;;;13.05;5.47;;;;;;;-1.33;77.27;100139.91;4913398;29;20058;-44
2023/01/14 00:35:19;;;;;;;11.57;4.40;;;;;;;-1.50;77.25;100105.53;4911860;29;20175;-43
2023/01/14 00:37:45;;;;;;;14.73;4.70;;;;;;;-1.45;77.16;100130.31;4913344;29;20775;-43
2023/01/14 00:40:11;;;;;;;13.57;4.93;;;;;;;-1.48;77.37;100120.06;4881151;29;20043;-44
2023/01/14 00:42:38;;;;;;;11.20;5.15;;;;;;;-1.44;77.25;100116.75;4896307;29;20056;-45
2023/01/14 00:45:06;;;;;;;16.90;5.40;;;;;;;-1.36;77.26;100140.69;4911336;29;20127;-44
2023/01/14 00:47:32;;;;;;;8.57;3.75;;;;;;;-1.53;77.63;100115.69;4905887;29;20056;-43
2023/01/14 00:49:58;;;;;;;15.05;6.00;;;;;;;-1.39;77.55;100135.53;4894896;29;20044;-43
2023/01/14 00:52:24;;;;;;;23.77;5.68;;;;;;;-1.36;77.65;100125.38;4896113;29;20067;-44
2023/01/14 00:54:50;;;;;;;13.25;5.40;;;;;;;-1.35;77.61;100121.16;4911113;29;20040;-44
2023/01/14 00:57:16;;;;;;;12.85;5.57;;;;;;;-1.31;77.80;100112.75;4904275;29;20428;-44
2023/01/14 00:59:41;;;;;;;15.65;5.28;;;;;;;-1.20;77.41;100124.00;4908475;29;20091;-43
2023/01/14 01:02:07;;;;;;;12.85;5.03;;;;;;;-1.24;77.65;100122.22;4912114;29;20147;-44
2023/01/14 01:04:33;;;;;;;8.63;4.18;;;;;;;-1.31;77.55;100118.69;4912640;29;20054;-46
2023/01/14 01:07:01;;;;;;;9.93;3.55;;;;;;;-1.31;77.64;100115.31;4908943;29;20043;-45
2023/01/14 01:09:27;;;;;;;11.60;4.07;;;;;;;-1.33;77.75;100120.38;4893265;29;20051;-43
2023/01/14 01:11:56;;;;;;;8.35;3.75;;;;;;;-1.53;78.03;100092.75;4910332;29;20048;-43
2023/01/14 01:14:24;;;;;;;10.48;4.82;;;;;;;-1.38;78.19;100119.41;4907406;29;20046;-43
2023/01/14 01:16:49;;;;;;;17.63;5.80;;;;;;;-1.38;78.69;100116.00;4910529;29;20063;-43
2023/01/14 01:19:15;;;;;;;16.13;5.00;;;;;;;-1.33;78.60;100114.41;4910642;29;20369;-43
2023/01/14 01:21:41;;;;;;;17.10;6.10;;;;;;;-1.31;78.77;100110.22;4896853;29;20200;-43
2023/01/14 01:24:07;;;;;;;22.13;5.13;;;;;;;-1.25;79.16;100112.00;4894959;29;20093;-43
2023/01/14 01:26:34;;;;;;;8.07;3.78;;;;;;;-1.25;78.94;100109.44;4907225;29;20056;-44
2023/01/14 01:29:00;;;;;;;11.27;5.15;;;;;;;-1.26;79.00;100108.59;4910117;29;20106;-43
2023/01/14 01:31:27;;;;;;;11.05;4.50;;;;;;;-1.30;79.11;100111.91;4911246;29;20516;-43
2023/01/14 01:33:53;;;;;;;16.02;4.70;;;;;;;-1.36;79.05;100102.44;4911789;29;20044;-46
2023/01/14 01:36:22;;;;;;;11.05;4.43;;;;;;;-1.38;79.46;100103.25;4910032;29;20040;-44
2023/01/14 01:38:48;;;;;;;19.20;4.40;;;;;;;-1.74;79.59;100049.84;4912652;29;20040;-44
2023/01/14 01:41:31;;;;;;;9.20;4.43;;;;;;;-1.43;79.60;100103.16;4892892;29;20075;-44
2023/01/14 01:44:12;;;;;;;10.80;4.10;;;;;;;-1.45;79.84;100111.59;4910863;29;20043;-45
2023/01/14 01:46:40;;;;;;;16.58;4.72;;;;;;;-1.45;79.89;100097.16;4910489;29;20047;-43
2023/01/14 01:49:12;;;;;;;17.35;6.28;;;;;;;-1.39;79.96;100087.09;4908725;29;20040;-44
2023/01/14 01:51:47;;;;;;;11.63;4.75;;;;;;;-1.33;79.96;100096.56;4910588;29;20052;-49
2023/01/14 01:54:13;;;;;;;10.93;3.92;;;;;;;-1.34;80.00;100097.38;4910821;29;20068;-43
2023/01/14 01:56:40;;;;;;;15.05;5.45;;;;;;;-1.33;80.12;100091.47;4894466;29;20127;-44
2023/01/14 01:59:09;;;;;;;11.25;4.97;;;;;;;-1.27;80.31;100091.59;4897831;29;20075;-43
2023/01/14 02:01:35;;;;;;;14.40;5.57;;;;;;;-1.26;80.02;100093.31;4913262;29;20044;-43
2023/01/14 02:04:01;;;;;;;10.48;4.35;;;;;;;-1.23;80.22;100097.59;4913101;29;20039;-43
2023/01/14 02:06:28;;;;;;;14.60;4.45;;;;;;;-1.27;79.95;100096.69;4910906;29;20531;-44
2023/01/14 02:08:55;;;;;;;22.70;4.85;;;;;;;-1.49;80.12;100059.69;4910656;29;20131;-45
2023/01/14 02:12:03;;;;;;;18.88;5.93;;;;;;;-1.33;80.20;100096.56;4910171;29;20709;-44
2023/01/14 02:14:47;;;;;;;17.42;5.75;;;;;;;-1.24;80.33;100095.88;4861315;29;20044;-44
2023/01/14 02:17:25;;;;;;;16.02;4.78;;;;;;;-1.23;80.12;100107.78;4902580;29;20062;-48
2023/01/14 02:19:57;;;;;;;14.02;5.20;;;;;;;-1.22;80.19;100102.72;4907242;29;20044;-45
2023/01/14 02:22:45;;;;;;;13.43;5.53;;;;;;;-1.22;80.12;100106.97;4914191;29;20044;-43
2023/01/14 02:25:14;;;;;;;20.13;5.10;;;;;;;-1.23;80.34;100101.00;4899228;29;20044;-43
2023/01/14 02:27:55;;;;;;;18.65;6.20;;;;;;;-1.17;80.01;100101.13;4913348;29;20048;-43
2023/01/14 02:30:48;;;;;;;15.88;6.22;;;;;;;-1.14;80.27;100100.31;4896805;29;20265;-45
2023/01/14 02:33:39;;;;;;;14.55;5.18;;;;;;;-1.12;80.20;100111.41;4914064;29;20047;-43
2023/01/14 02:36:33;;;;;;;13.10;5.88;;;;;;;-1.21;80.10;100116.34;4912754;29;20040;-42
2023/01/14 02:39:06;;;;;;;13.20;4.18;;;;;;;-1.26;79.97;100116.25;4908043;29;20524;-43
2023/01/14 02:44:38;;;;;;;12.30;5.32;;;;;;;-1.26;80.24;100113.72;4898934;29;20048;-44
2023/01/14 02:47:07;;;;;;;13.53;5.90;;;;;;;-1.14;80.21;100129.22;4896594;29;20123;-44
2023/01/14 02:49:37;;;;;;;12.75;5.25;;;;;;;-1.15;79.71;100108.81;4911879;29;20043;-45
2023/01/14 02:52:08;;;;;;;12.98;4.45;;;;;;;-1.19;79.72;100104.47;4897340;29;20068;-45
2023/01/14 02:54:35;;;;;;;12.70;6.07;;;;;;;-1.16;79.56;100104.53;4911012;29;20048;-43
2023/01/14 02:57:06;;;;;;;18.67;5.72;;;;;;;-1.11;79.74;100098.69;4910120;29;20059;-43
2023/01/14 03:00:07;;;;;;;13.80;6.18;;;;;;;-1.02;79.72;100108.22;4897562;29;20496;-44
2023/01/14 03:02:34;;;;;;;14.82;6.20;;;;;;;-0.96;79.24;100091.31;4858435;29;20048;-45
2023/01/14 03:05:18;;;;;;;13.82;4.57;;;;;;;-0.84;79.45;100102.59;4904434;29;20876;-44
2023/01/14 03:07:48;;;;;;;17.55;5.68;;;;;;;-0.95;78.82;100099.84;4909417;29;20052;-44
2023/01/14 03:10:24;;;;;;;13.38;5.65;;;;;;;-0.97;79.27;100097.25;4911231;29;20062;-44
2023/01/14 03:13:20;;;;;;;16.63;6.25;;;;;;;-0.86;79.30;100102.56;4913550;29;20102;-43
2023/01/14 03:16:15;;;;;;;14.70;5.55;;;;;;;-0.93;79.15;100093.91;4909592;29;20103;-43
2023/01/14 03:18:51;;;;;;;10.35;4.90;;;;;;;-0.95;79.16;100094.75;4895041;29;20049;-44
2023/01/14 03:21:24;;;;;;;20.17;6.82;;;;;;;-0.98;79.34;100094.66;4907200;29;20075;-45
2023/01/14 03:23:55;;;;;;;13.10;6.50;;;;;;;-0.97;79.42;100101.50;4909572;29;20040;-43
2023/01/14 03:26:22;;;;;;;18.63;7.75;;;;;;;-0.97;79.32;100104.03;4911241;29;20135;-44
2023/01/14 03:28:50;;;;;;;17.25;7.10;;;;;;;-0.94;79.53;100104.09;4893590;29;20048;-44
2023/01/14 03:31:22;;;;;;;14.13;6.55;;;;;;;-0.91;79.38;100091.41;4908734;29;20051;-43
2023/01/14 03:33:58;;;;;;;20.52;6.95;;;;;;;-0.93;79.50;100091.38;4912493;29;20052;-43
2023/01/14 03:36:27;;;;;;;14.45;6.43;;;;;;;-1.08;79.29;100063.03;4909650;29;20128;-46
2023/01/14 03:39:03;;;;;;;15.88;6.32;;;;;;;-0.93;79.37;100090.50;4906004;29;20051;-43
2023/01/14 03:44:30;;;;;;;13.73;6.43;;;;;;;-0.96;79.31;100088.78;4911000;29;20048;-45
2023/01/14 03:46:56;;;;;;;15.07;6.40;;;;;;;-0.98;79.31;100090.41;4909467;29;20881;-47
2023/01/14 03:49:22;;;;;;;19.92;7.57;;;;;;;-0.96;79.54;100081.13;4907457;29;20056;-44
2023/01/14 03:52:06;;;;;;;15.43;6.20;;;;;;;-0.86;79.23;100082.13;4911106;29;20451;-43
2023/01/14 03:55:01;;;;;;;19.00;7.10;;;;;;;-0.87;79.34;100086.38;4896608;29;20044;-41
2023/01/14 03:57:45;;;;;;;16.33;7.18;;;;;;;-0.84;78.58;100088.13;4910058;29;20044;-42
2023/01/14 04:00:33;;;;;;;15.13;6.57;;;;;;;-0.92;78.80;100100.75;4911765;29;20071;-42
2023/01/14 04:03:00;;;;;;;13.98;6.82;;;;;;;-0.86;78.90;100100.88;4909554;29;20177;-42
2023/01/14 04:05:27;;;;;;;19.55;6.95;;;;;;;-1.01;78.44;100072.53;4912083;29;20056;-44
2023/01/14 04:07:54;;;;;;;15.73;6.72;;;;;;;-0.87;78.20;100095.72;4882415;29;20052;-43
2023/01/14 04:10:20;;;;;;;14.18;6.53;;;;;;;-0.89;78.19;100105.91;4927057;29;20048;-44
2023/01/14 04:15:30;;;;;;;18.30;7.25;;;;;;;-0.96;78.06;100098.13;4910273;29;20560;-44
2023/01/14 04:17:56;;;;;;;16.90;7.40;;;;;;;-0.98;78.21;100095.53;4911111;29;20051;-44
2023/01/14 04:20:22;;;;;;;14.82;6.22;;;;;;;-0.98;78.29;100087.00;4911843;29;20123;-44
2023/01/14 04:22:48;;;;;;;15.73;7.38;;;;;;;-0.99;78.36;100101.47;4911412;29;20622;-44
2023/01/14 04:25:14;;;;;;;18.55;7.15;;;;;;;-0.98;78.43;100100.63;4913164;29;20044;-43
2023/01/14 04:27:40;;;;;;;20.27;7.78;;;;;;;-1.03;78.32;100092.03;4911167;29;20405;-43
2023/01/14 04:30:06;;;;;;;26.05;6.53;;;;;;;-0.92;77.78;100108.41;4903183;29;20054;-43
2023/01/14 04:32:32;;;;;;;16.00;5.97;;;;;;;-0.93;78.10;100093.91;4895709;29;20107;-44
2023/01/14 04:34:58;;;;;;;14.85;6.75;;;;;;;-0.95;78.20;100098.16;4911183;29;20134;-44
2023/01/14 04:37:24;;;;;;;14.38;6.85;;;;;;;-1.00;77.84;100097.22;4911214;29;20048;-46
2023/01/14 04:39:51;;;;;;;23.95;6.25;;;;;;;-1.01;77.76;100100.59;4908593;29;20045;-43
2023/01/14 04:42:26;;;;;;;22.60;7.75;;;;;;;-1.02;78.09;100098.84;4907868;29;20063;-46
2023/01/14 04:45:01;;;;;;;19.60;7.93;;;;;;;-0.98;77.85;100108.28;4909806;29;20040;-43
2023/01/14 04:47:30;;;;;;;20.38;7.13;;;;;;;-1.08;77.87;100072.38;4908112;29;20047;-44
2023/01/14 04:49:56;;;;;;;19.75;7.50;;;;;;;-0.93;77.86;100093.06;4911104;29;20076;-44
2023/01/14 04:52:25;;;;;;;17.10;8.35;;;;;;;-0.98;77.60;100103.19;4906910;29;20064;-42
2023/01/14 04:54:52;;;;;;;18.70;7.95;;;;;;;-1.11;77.60;100095.28;4901890;29;20055;-43
2023/01/14 04:57:18;;;;;;;21.75;7.20;;;;;;;-1.12;78.01;100106.31;4908504;29;20048;-43
2023/01/14 04:59:44;;;;;;;18.13;6.97;;;;;;;-1.07;77.70;100100.47;4910452;29;20047;-43
2023/01/14 05:02:10;;;;;;;16.02;6.88;;;;;;;-0.99;77.70;100104.00;4904258;29;20054;-44
2023/01/14 05:04:35;;;;;;;17.23;7.82;;;;;;;-0.96;77.82;100098.97;4888569;29;20048;-43
2023/01/14 05:07:03;;;;;;;16.85;7.53;;;;;;;-0.94;77.60;100107.50;4906983;29;20064;-44
2023/01/14 05:09:29;;;;;;;22.33;8.95;;;;;;;-0.90;77.59;100106.75;4911450;29;20059;-42
2023/01/14 05:11:56;;;;;;;17.48;8.60;;;;;;;-0.89;77.59;100102.50;4892197;29;20044;-44
2023/01/14 05:14:21;;;;;;;20.30;8.32;;;;;;;-0.90;77.31;100105.88;4910096;29;20036;-43
2023/01/14 05:16:48;;;;;;;17.80;7.40;;;;;;;-0.88;77.14;100107.63;4912043;29;20103;-43
2023/01/14 05:19:13;;;;;;;17.45;7.95;;;;;;;-0.91;77.29;100105.03;4910597;29;20036;-49
2023/01/14 05:21:39;;;;;;;15.18;6.90;;;;;;;-0.96;77.26;100106.63;4909378;29;20431;-43
2023/01/14 05:24:05;;;;;;;20.23;8.23;;;;;;;-1.03;77.18;100101.38;4912171;29;20147;-42
2023/01/14 05:26:31;;;;;;;22.20;7.53;;;;;;;-1.18;77.17;100083.22;4910033;29;20070;-42
2023/01/14 05:28:57;;;;;;;19.27;7.65;;;;;;;-1.03;77.01;100102.25;4910052;29;20114;-43
2023/01/14 05:31:23;;;;;;;17.33;7.95;;;;;;;-1.13;77.21;100097.78;4910588;29;20048;-44
2023/01/14 05:33:49;;;;;;;13.50;6.68;;;;;;;-1.23;77.41;100092.50;4910267;29;20164;-45
2023/01/14 05:36:15;;;;;;;16.58;6.10;;;;;;;-1.16;77.27;100118.16;4890413;29;20115;-42
2023/01/14 05:38:41;;;;;;;21.38;7.68;;;;;;;-1.17;77.48;100111.34;4904947;29;20139;-42
2023/01/14 05:41:12;;;;;;;16.23;7.15;;;;;;;-1.15;77.56;100111.38;4899663;29;20048;-43
2023/01/14 05:46:22;;;;;;;18.30;7.57;;;;;;;-1.21;77.79;100114.66;4903838;29;20071;-44
2023/01/14 05:48:48;;;;;;;19.35;7.63;;;;;;;-1.25;77.85;100119.66;4898367;29;20487;-44
2023/01/14 05:51:14;;;;;;;17.80;7.55;;;;;;;-1.23;77.85;100121.41;4909133;29;20044;-44
2023/01/14 05:53:40;;;;;;;20.15;7.95;;;;;;;-1.14;77.87;100123.25;4908649;29;20087;-43
2023/01/14 05:56:07;;;;;;;14.13;6.13;;;;;;;-1.04;77.68;100132.81;4886705;29;20132;-43
2023/01/14 05:58:33;;;;;;;14.65;6.82;;;;;;;-1.11;77.53;100126.75;4904530;29;20528;-44
2023/01/14 06:06:43;;;;;;;16.83;7.35;;;;;;;-1.12;77.97;100131.81;4903133;29;20165;-44
2023/01/14 06:09:11;;;;;;;18.80;7.68;;;;;;;-1.12;77.93;100126.72;4889458;29;20059;-50
2023/01/14 06:11:41;;;;;;;23.70;8.10;;;;;;;-1.15;78.20;100116.47;4909269;29;20174;-47
2023/01/14 06:14:07;;;;;;;18.95;7.70;;;;;;;-1.15;77.76;100122.41;4894759;29;20123;-52
2023/01/14 06:16:40;;;;;;;15.85;7.38;;;;;;;-1.12;77.80;100131.81;4907546;29;20091;-45
2023/01/14 06:19:11;;;;;;;19.67;8.13;;;;;;;-1.10;77.90;100130.19;4909714;29;20044;-46
2023/01/14 06:21:37;;;;;;;18.13;6.95;;;;;;;-1.07;78.24;100130.22;4908823;29;20705;-44
2023/01/14 06:24:03;;;;;;;31.02;9.15;;;;;;;-1.06;78.20;100127.72;4911513;29;20052;-47
2023/01/14 06:26:31;;;;;;;21.10;7.70;;;;;;;-1.05;78.14;100149.84;4891374;29;20048;-45
2023/01/14 06:29:02;;;;;;;19.23;8.18;;;;;;;-1.02;78.05;100136.28;4905843;29;20749;-40
2023/01/14 06:31:28;;;;;;;23.58;7.50;;;;;;;-0.94;78.17;100135.56;4894031;29;20040;-44
2023/01/14 06:33:57;;;;;;;9.65;4.68;;;;;;;-0.90;77.93;100136.50;4893978;29;20089;-47
2023/01/14 06:36:24;;;;;;;18.70;6.80;;;;;;;-1.00;77.61;100148.25;4908803;29;20040;-45
2023/01/14 06:38:50;;;;;;;20.63;6.43;;;;;;;-1.02;78.22;100136.28;4909002;29;20508;-44
2023/01/14 06:41:16;;;;;;;14.73;5.90;;;;;;;-1.29;77.89;100118.72;4910449;29;20044;-44
2023/01/14 06:43:42;;;;;;;11.45;5.93;;;;;;;-1.38;77.98;100109.22;4912663;29;20106;-45
2023/01/14 06:46:13;;;;;;;10.68;5.22;;;;;;;-1.42;77.90;100112.53;4913905;29;20036;-46
2023/01/14 06:48:39;;;;;;;12.43;5.47;;;;;;;-1.23;78.47;100151.16;4915099;29;20044;-43
2023/01/14 06:51:07;;;;;;;12.30;5.43;;;;;;;-1.22;78.34;100140.13;4914137;29;20040;-45
2023/01/14 06:53:33;;;;;;;14.63;6.43;;;;;;;-1.32;77.90;100128.88;4915286;29;20059;-45
2023/01/14 06:56:04;;;;;;;14.75;5.57;;;;;;;-1.18;78.44;100147.00;4914780;29;20036;-44
2023/01/14 06:58:30;;;;;;;19.45;7.20;;;;;;;-1.15;78.51;100150.47;4895908;29;20092;-44
2023/01/14 07:00:57;;;;;;;17.23;6.93;;;;;;;-1.42;78.42;100088.72;4895055;29;20037;-49
2023/01/14 07:03:23;;;;;;;12.07;5.63;;;;;;;-1.08;78.44;100147.22;4907839;29;20063;-46
2023/01/14 07:05:49;;;;;;;14.70;6.43;;;;;;;-1.34;78.38;100105.88;4915147;29;20516;-44
2023/01/14 07:08:15;;;;;;;18.00;6.40;;;;;;;-1.08;78.29;100159.09;4915123;29;20048;-44
2023/01/14 07:10:41;;;;;;;21.90;7.22;;;;;;;-0.97;78.36;100160.19;4913914;29;20040;-46
2023/01/14 07:13:06;;;;;;;13.40;5.28;;;;;;;-1.15;77.89;100130.06;4914825;29;20051;-44
2023/01/14 07:15:32;;;;;;;13.82;6.25;;;;;;;-1.02;77.71;100161.78;4915007;29;20042;-44
2023/01/14 07:17:58;;;;;;;14.23;6.53;;;;;;;-1.11;77.92;100148.84;4913331;29;20036;-43
2023/01/14 07:20:24;;;;;;;13.60;6.13;;;;;;;-1.02;77.82;100155.00;4915131;29;20130;-44
2023/01/14 07:22:50;;;;;;;16.00;6.55;;;;;;;-1.08;77.72;100169.31;4913384;29;20498;-45
2023/01/14 07:25:16;;;;;;;12.18;4.15;;;;;;;-1.26;77.60;100128.16;4912948;29;20534;-45
2023/01/14 07:27:43;;;;;;;10.27;5.60;;;;;;;-1.45;77.94;100121.78;4914641;29;20100;-45
2023/01/14 07:30:10;;;;;;;11.00;4.97;;;;;;;-1.15;78.04;100170.88;4897727;29;20051;-45
2023/01/14 07:32:36;;;;;;;14.10;5.63;;;;;;;-1.19;78.05;100153.78;4912798;29;20047;-44
2023/01/14 07:35:02;;;;;;;14.20;5.72;;;;;;;-1.18;78.21;100172.50;4914637;29;20036;-43
2023/01/14 07:37:28;;;;;;;12.13;4.85;;;;;;;-1.17;78.27;100182.75;4914679;29;20706;-44
2023/01/14 07:39:54;;;;;;;16.05;6.07;;;;;;;-1.38;78.33;100139.81;4914758;29;20039;-44
2023/01/14 07:42:20;;;;;;;13.32;5.80;;;;;;;-1.17;78.37;100174.25;4914567;29;20040;-44
2023/01/14 07:44:46;;;;;;;10.60;4.38;;;;;;;-1.20;78.17;100180.13;4914006;29;20138;-46
2023/01/14 07:47:13;;;;;;;14.88;5.60;;;;;;;-1.17;78.26;100172.56;4914295;29;20127;-45
2023/01/14 07:49:41;;;;;;;16.45;5.13;;;;;;;-1.36;77.94;100127.94;4914347;29;20044;-44
2023/01/14 07:52:12;;;;;;;10.83;4.50;;;;;;;-1.14;78.29;100172.59;4912499;29;20498;-45
2023/01/14 07:54:39;;;;;;;8.73;3.72;;;;;;;-1.12;77.92;100177.75;4912899;29;20043;-45
2023/01/14 07:57:05;;;;;;;14.18;5.93;;;;;;;-1.15;78.14;100173.44;4914345;29;20043;-44
2023/01/14 07:59:31;;;;;;;14.88;5.25;;;;;;;-1.08;78.12;100182.94;4913047;29;20348;-44
2023/01/14 08:01:57;;;;;;;12.88;5.63;;;;;;;-1.08;77.89;100169.31;4913885;29;20046;-44
2023/01/14 08:04:23;;;;;;;8.32;3.88;;;;;;;-1.04;78.13;100176.19;4913804;29;20050;-47
2023/01/14 08:06:49;;;;;;;10.77;5.30;;;;;;;-1.37;77.84;100135.59;4913822;29;20420;-46
2023/01/14 08:09:17;;;;;;;8.05;4.55;;;;;;;-1.14;78.17;100166.63;4913708;29;20087;-46
2023/01/14 08:11:44;;;;;;;10.45;4.22;;;;;;;-1.16;77.92;100179.38;4913835;29;20055;-45
2023/01/14 08:14:10;;;;;;;28.10;6.15;;;;;;;-1.10;78.18;100179.47;4913894;29;20505;-44
2023/01/14 08:16:35;;;;;;;9.63;3.88;;;;;;;-1.06;78.10;100188.09;4912425;29;20051;-45
2023/01/14 08:19:01;;;;;;;15.18;6.05;;;;;;;-1.12;77.89;100178.59;4913389;29;20040;-46
2023/01/14 08:21:27;;;;;;;18.38;5.53;;;;;;;-1.14;78.16;100164.09;4913854;29;20531;-46
2023/01/14 08:23:53;;;;;;;9.93;4.35;;;;;;;-1.18;78.08;100165.72;4912453;29;20076;-47
2023/01/14 08:26:19;;;;;;;16.42;5.93;;;;;;;-1.15;78.39;100170.03;4913665;29;20043;-44
2023/01/14 08:28:45;;;;;;;11.95;5.15;;;;;;;-1.17;78.18;100146.19;4912448;29;20040;-46
2023/01/14 08:31:15;;;;;;;16.17;5.93;;;;;;;-1.24;77.96;100131.56;4913563;29;20576;-47
2023/01/14 08:33:43;;;;;;;12.05;5.22;;;;;;;-1.24;78.15;100126.47;4912889;29;20044;-44
2023/01/14 08:36:15;;;;;;;19.92;5.55;;;;;;;-0.94;78.35;100167.88;4912205;29;20043;-43
2023/01/14 08:38:44;;;;;;;17.60;5.22;;;;;;;-0.90;77.56;100164.59;4913139;29;20051;-44
2023/01/14 08:41:13;;;;;;;13.20;4.00;;;;;;;-0.89;77.60;100159.50;4913334;29;20428;-45
2023/01/14 08:43:39;;;;;;;10.15;4.80;;;;;;;-0.92;77.75;100158.56;4913324;29;20043;-44
2023/01/14 08:46:09;;;;;;;12.02;5.00;;;;;;;-0.88;77.81;100151.00;4911700;29;20493;-44
2023/01/14 08:48:35;;;;;;;17.02;5.03;;;;;;;-0.94;77.55;100157.69;4910695;29;20405;-43
2023/01/14 08:51:03;;;;;;;15.07;4.15;;;;;;;-0.92;77.78;100158.56;4912900;29;20048;-43
2023/01/14 08:53:29;;;;;;;10.88;5.10;;;;;;;-0.95;77.43;100145.78;4896107;29;20055;-45
2023/01/14 08:55:57;;;;;;;15.55;4.47;;;;;;;-0.91;77.69;100160.31;4913152;29;20119;-45
2023/01/14 08:58:23;;;;;;;10.77;5.47;;;;;;;-0.96;77.50;100170.44;4912682;29;20044;-44
2023/01/14 09:00:53;;;;;;;10.10;4.25;;;;;;;-0.96;77.71;100152.56;4911594;29;20051;-45
2023/01/14 09:03:19;;;;;;;9.05;4.07;;;;;;;-0.98;77.66;100158.47;4879976;29;20052;-45
2023/01/14 09:05:45;;;;;;;13.90;5.75;;;;;;;-0.91;77.96;100167.97;4912461;29;20072;-45
2023/01/14 09:19:16;;;;;;;9.48;4.10;;;;;;;-1.02;78.25;100172.84;4912064;29;20051;-44
2023/01/14 09:21:42;;;;;;;15.60;5.38;;;;;;;-0.98;78.08;100166.97;4908051;29;20041;-53
2023/01/14 09:24:07;;;;;;;15.95;4.93;;;;;;;-0.85;78.20;100162.97;4907295;29;20135;-63
2023/01/14 09:26:34;;;;;;;14.13;5.57;;;;;;;-0.81;77.81;100166.44;4901862;29;20593;-59
2023/01/14 09:28:59;;;;;;;14.45;5.43;;;;;;;-0.77;77.92;100171.63;4898310;29;20043;-60
2023/01/14 09:31:25;;;;;;;13.85;5.20;;;;;;;-0.81;77.61;100162.19;4903240;29;20044;-58
2023/01/14 09:33:51;;;;;;;9.27;4.00;;;;;;;-0.78;78.03;100169.91;4900316;29;20055;-62
2023/01/14 09:36:17;;;;;;;14.15;5.30;;;;;;;-0.83;78.03;100158.75;4879174;29;20040;-62
2023/01/14 09:38:43;;;;;;;14.15;4.78;;;;;;;-0.66;78.01;100165.03;4898221;29;20051;-61
2023/01/14 09:41:27;;;;;;;14.23;4.88;;;;;;;-0.64;77.94;100167.63;4911877;29;20353;-60
2023/01/14 09:43:54;;;;;;;13.98;3.92;;;;;;;-0.73;77.95;100175.13;4896767;29;20048;-58
2023/01/14 09:46:24;;;;;;;15.48;5.40;;;;;;;-0.80;77.79;100165.63;4896258;29;20049;-60
2023/01/14 09:48:50;;;;;;;9.20;4.63;;;;;;;-0.81;78.11;100162.19;4896113;29;20040;-59
2023/01/14 09:51:19;;;;;;;11.73;5.35;;;;;;;-0.76;78.13;100168.25;4885816;29;20539;-62
2023/01/14 09:54:15;;;;;;;7.88;3.25;;;;;;;-0.82;78.48;100163.03;4895552;29;20536;-63
2023/01/14 09:56:55;;;;;;;9.90;3.80;;;;;;;-0.84;78.37;100179.16;4894292;29;20539;-60
2023/01/14 09:59:33;;;;;;;17.55;5.43;;;;;;;-0.90;78.85;100157.78;4896175;29;20075;-60
2023/01/14 10:02:12;;;;;;;12.73;4.30;;;;;;;-1.13;79.04;100140.31;4902953;29;20091;-60
2023/01/14 10:05:05;;;;;;;10.35;5.10;;;;;;;-0.99;79.61;100157.59;4901665;29;20091;-63
2023/01/14 10:07:33;;;;;;;8.75;3.13;;;;;;;-0.90;79.44;100168.00;4901077;29;20044;-61
2023/01/14 10:10:01;;;;;;;13.82;4.50;;;;;;;-0.96;79.52;100155.13;4906079;29;20044;-56
2023/01/14 10:12:40;;;;;;;9.15;3.53;;;;;;;-0.96;79.89;100160.22;4909638;29;20044;-63
2023/01/14 10:15:06;;;;;;;15.90;5.53;;;;;;;-1.02;80.45;100156.69;4918801;29;20542;-60
2023/01/14 10:17:36;;;;;;;10.13;4.78;;;;;;;-1.09;80.46;100142.94;4903194;29;20036;-61
2023/01/14 10:20:08;;;;;;;;;;;;;;;-1.02;80.75;100157.53;4905516;29;20079;-60
2023/01/14 10:22:38;;;;;;;10.60;4.18;;;;;;;-1.08;80.73;100143.81;4893143;29;20723;-61
2023/01/14 10:25:14;;;;;;;9.65;4.65;;;;;;;-1.11;80.98;100142.06;4893232;29;20052;-60
2023/01/14 10:27:41;;;;;;;6.63;3.83;;;;;;;-1.13;81.51;100146.25;4909878;29;20063;-59
2023/01/14 10:30:18;;;;;;;12.73;5.75;;;;;;;-1.09;81.41;100140.38;4906923;29;20107;-59
2023/01/14 10:32:45;;;;;;;9.45;3.65;;;;;;;-1.08;81.57;100143.81;4913860;29;20487;-62
2023/01/14 10:35:13;;;;;;;10.30;3.10;;;;;;;-1.12;81.60;100142.03;4907405;29;20044;-61
2023/01/14 10:37:39;;;;;;;9.75;3.25;;;;;;;-1.13;81.69;100137.75;4906000;29;20052;-62
2023/01/14 10:40:05;;;;;;;15.48;4.35;;;;;;;-1.12;81.80;100136.94;4906299;29;20583;-61
2023/01/14 10:42:32;;;;;;;7.30;3.50;;;;;;;-1.23;82.05;100123.09;4911308;29;20054;-61
2023/01/14 10:44:59;;;;;;;18.00;5.10;;;;;;;-1.29;82.05;100106.84;4910977;29;20096;-62
2023/01/14 10:47:26;;;;;;;14.40;5.07;;;;;;;-1.36;82.25;100089.69;4908316;29;20044;-62
2023/01/14 10:49:59;;;;;;;11.25;5.38;;;;;;;-1.09;82.29;100130.19;4911624;29;20052;-62
2023/01/14 10:52:26;;;;;;;10.27;3.83;;;;;;;-1.06;82.62;100131.94;4908486;29;20056;-62
2023/01/14 10:55:11;;;;;;;13.38;4.68;;;;;;;-1.11;82.53;100124.22;4910411;29;20044;-61
2023/01/14 10:58:05;;;;;;;10.75;4.53;;;;;;;-1.10;82.79;100133.56;4900058;29;20067;-60
2023/01/14 11:00:37;;;;;;;6.30;2.88;;;;;;;-1.10;82.50;100131.00;4913915;29;20548;-60
2023/01/14 11:03:25;;;;;;;11.73;4.35;;;;;;;-1.11;82.86;100125.91;4894391;29;20065;-64
2023/01/14 11:06:03;;;;;;;11.82;4.07;;;;;;;-1.10;82.53;100125.91;4910265;29;20048;-62
2023/01/14 11:08:34;;;;;;;8.07;3.55;;;;;;;-1.05;82.61;100121.78;4911606;29;20482;-60
2023/01/14 11:11:05;;;;;;;10.38;4.57;;;;;;;-1.01;82.91;100133.75;4911878;29;20612;-61
2023/01/14 11:13:44;;;;;;;7.75;3.05;;;;;;;-1.02;82.74;100126.06;4912713;29;20188;-60
2023/01/14 11:16:24;;;;;;;9.48;3.15;;;;;;;-1.12;82.78;100117.38;4891216;29;20428;-59
2023/01/14 11:18:55;;;;;;;11.07;4.20;;;;;;;-1.07;83.20;100123.44;4911880;29;20500;-56
2023/01/14 11:21:21;;;;;;;9.93;3.95;;;;;;;-1.04;82.94;100117.50;4905472;29;20123;-56
2023/01/14 11:24:01;;;;;;;8.95;3.95;;;;;;;-1.10;83.10;100118.25;4896821;29;20047;-55
2023/01/14 11:26:30;;;;;;;8.82;3.88;;;;;;;-1.20;83.39;100093.41;4907975;29;20044;-58
2023/01/14 11:29:16;;;;;;;9.15;4.50;;;;;;;-1.01;83.39;100118.44;4910994;29;20099;-58
2023/01/14 11:31:43;;;;;;;15.50;4.68;;;;;;;-0.96;83.06;100121.09;4902372;29;20044;-60
2023/01/14 11:34:28;;;;;;;8.23;4.13;;;;;;;-1.00;83.15;100122.72;4904307;29;20535;-59
2023/01/14 11:37:34;;;;;;;12.30;4.65;;;;;;;-1.05;83.35;100128.56;4909950;29;20051;-62
2023/01/14 11:40:01;;;;;;;11.68;4.22;;;;;;;-0.95;83.44;100127.91;4897972;29;20060;-59
2023/01/14 11:42:37;;;;;;;15.43;4.65;;;;;;;-0.95;82.97;100121.13;4909287;29;20040;-57
2023/01/14 11:45:17;;;;;;;7.70;2.90;;;;;;;-1.26;83.03;100082.25;4902887;29;20045;-60
2023/01/14 11:47:56;;;;;;;8.95;3.67;;;;;;;-0.99;83.34;100126.09;4894973;29;20048;-62
2023/01/14 11:50:32;;;;;;;13.15;5.10;;;;;;;-0.96;83.70;100131.28;4890364;29;20058;-61
2023/01/14 11:53:15;;;;;;;10.15;4.47;;;;;;;-1.00;83.16;100143.13;4910647;29;20131;-56
2023/01/14 11:55:42;;;;;;;10.85;4.25;;;;;;;-1.15;83.37;100116.47;4912243;29;20047;-60
2023/01/14 11:58:18;;;;;;;12.57;4.63;;;;;;;-1.00;83.75;100144.81;4912183;29;20127;-61
2023/01/14 12:00:50;;;;;;;13.60;4.97;;;;;;;-1.00;83.79;100140.59;4905714;29;20044;-62